Time;durP1;ratioP1;P1;durP2;ratioP2;P2;SDS_P1;SDS_P2;PMS_P1;PMS_P2;Temp;Humidity;BMP_temperature;BMP_pressure;BME280_temperature;BME280_humidity;BME280_pressure;Samples;Min_cycle;Max_cycle;Signal;HPM_P1;HPM_P2
2022/03/13 00:00:10;;;;;;;16.73;10.98;;;3.30;40.10;;;;;;5051591;28;20340;-85
2022/03/13 00:02:37;;;;;;;16.48;11.02;;;3.20;40.20;;;;;;5017514;28;20199;-87
2022/03/13 00:05:06;;;;;;;14.18;10.48;;;3.20;40.40;;;;;;5049201;28;20234;-86
2022/03/13 00:07:34;;;;;;;16.63;11.55;;;3.10;40.40;;;;;;5047164;28;20204;-87
2022/03/13 00:10:01;;;;;;;17.58;11.98;;;3.30;45.70;;;;;;5045432;28;20207;-87
2022/03/13 00:12:30;;;;;;;21.08;12.38;;;3.10;40.60;;;;;;5044753;28;20204;-87
2022/03/13 00:15:02;;;;;;;15.48;11.07;;;3.00;41.50;;;;;;5045484;28;20246;-87
2022/03/13 00:17:30;;;;;;;21.33;12.07;;;3.10;41.10;;;;;;5047920;28;20207;-86
2022/03/13 00:19:59;;;;;;;17.45;11.25;;;3.20;53.90;;;;;;5051672;28;20339;-87
2022/03/13 00:22:26;;;;;;;16.95;10.50;;;3.00;50.60;;;;;;5050118;28;20291;-87
2022/03/13 00:24:53;;;;;;;15.65;10.68;;;2.80;54.60;;;;;;5046872;28;20207;-87
2022/03/13 00:27:19;;;;;;;17.02;12.02;;;2.90;40.90;;;;;;5044023;28;20230;-87
2022/03/13 00:29:46;;;;;;;12.10;10.27;;;2.80;40.90;;;;;;5042922;28;20199;-87
2022/03/13 00:32:14;;;;;;;15.98;11.35;;;2.90;40.80;;;;;;5042873;28;20223;-86
2022/03/13 00:34:41;;;;;;;16.40;10.73;;;2.80;41.20;;;;;;5045663;28;20207;-86
2022/03/13 00:37:07;;;;;;;15.98;11.85;;;2.80;41.10;;;;;;5043549;28;20200;-86
2022/03/13 00:39:39;;;;;;;15.05;11.15;;;2.80;41.00;;;;;;5043299;28;20613;-87
2022/03/13 00:42:06;;;;;;;16.65;11.20;;;2.70;41.60;;;;;;5043378;28;20323;-86
2022/03/13 00:44:33;;;;;;;16.33;10.30;;;2.40;56.00;;;;;;5043228;28;20199;-86
2022/03/13 00:46:59;;;;;;;17.38;10.45;;;2.60;42.60;;;;;;5043342;28;20204;-87
2022/03/13 00:49:27;;;;;;;17.35;10.77;;;2.60;43.00;;;;;;5043145;28;20199;-87
2022/03/13 00:51:54;;;;;;;14.45;10.25;;;2.50;43.40;;;;;;5042979;28;20219;-86
2022/03/13 00:54:20;;;;;;;13.10;10.75;;;2.50;43.80;;;;;;5048343;28;20203;-85
2022/03/13 00:56:47;;;;;;;14.65;11.65;;;2.90;48.70;;;;;;5057289;28;20195;-84
2022/03/13 00:59:13;;;;;;;15.55;11.35;;;2.50;43.60;;;;;;5057281;28;20211;-84
2022/03/13 01:01:40;;;;;;;17.48;11.88;;;2.50;43.50;;;;;;5053436;28;20236;-86
2022/03/13 01:04:07;;;;;;;18.50;12.93;;;2.30;43.60;;;;;;5042456;28;20207;-86
2022/03/13 01:06:35;;;;;;;16.50;11.45;;;2.20;44.00;;;;;;5041142;28;20216;-86
2022/03/13 01:09:01;;;;;;;20.02;13.23;;;2.50;58.00;;;;;;5048248;28;20208;-87
2022/03/13 01:11:28;;;;;;;18.50;12.50;;;2.30;44.50;;;;;;5045375;28;20226;-86
2022/03/13 01:13:55;;;;;;;14.55;10.15;;;2.40;44.30;;;;;;5045995;28;20211;-86
2022/03/13 01:16:23;;;;;;;16.83;12.90;;;2.40;44.40;;;;;;5047581;28;20208;-86
2022/03/13 01:18:52;;;;;;;16.08;12.00;;;2.90;44.80;;;;;;5045478;28;20227;-87
2022/03/13 01:21:20;;;;;;;18.25;12.15;;;2.20;45.60;;;;;;5044214;28;20250;-87
2022/03/13 01:24:18;;;;;;;18.35;10.80;;;2.30;44.40;;;;;;5046755;28;20227;-85
2022/03/13 01:26:47;;;;;;;17.65;12.15;;;2.70;55.50;;;;;;5047107;28;20204;-87
2022/03/13 01:29:15;;;;;;;17.58;11.70;;;2.40;45.00;;;;;;5045018;28;20204;-86
2022/03/13 01:31:45;;;;;;;18.63;11.98;;;2.30;44.90;;;;;;5043730;28;20227;-87
2022/03/13 01:34:14;;;;;;;20.30;13.57;;;2.20;45.20;;;;;;5043814;28;20211;-85
2022/03/13 01:36:41;;;;;;;19.75;13.30;;;2.10;51.50;;;;;;5043864;28;20270;-86
2022/03/13 01:39:10;;;;;;;18.48;12.45;;;2.20;46.20;;;;;;5042846;28;20520;-85
2022/03/13 01:41:36;;;;;;;17.40;11.77;;;2.10;46.70;;;;;;5043741;28;20235;-85
2022/03/13 01:44:05;;;;;;;16.30;11.27;;;2.10;46.80;;;;;;5046040;28;20204;-85
2022/03/13 01:46:31;;;;;;;18.95;13.13;;;2.00;47.80;;;;;;5045912;28;20273;-85
2022/03/13 01:49:01;;;;;;;21.25;13.13;;;1.90;47.40;;;;;;5046526;28;20619;-86
2022/03/13 01:51:28;;;;;;;17.88;11.57;;;1.90;47.50;;;;;;5046382;28;20600;-86
2022/03/13 01:53:56;;;;;;;17.27;12.18;;;1.80;47.20;;;;;;5045931;28;20306;-86
2022/03/13 01:56:25;;;;;;;18.55;12.70;;;1.80;47.70;;;;;;5046820;28;20207;-86
2022/03/13 01:58:53;;;;;;;22.77;12.10;;;1.70;47.70;;;;;;5045911;28;20249;-86
2022/03/13 02:01:21;;;;;;;19.10;12.48;;;1.70;47.70;;;;;;5045618;28;20224;-86
2022/03/13 02:03:49;;;;;;;16.58;11.75;;;1.30;62.60;;;;;;5046599;28;20208;-86
2022/03/13 02:06:16;;;;;;;17.65;12.52;;;1.50;47.70;;;;;;5048882;28;20383;-86
2022/03/13 02:08:45;;;;;;;20.73;12.43;;;1.80;61.90;;;;;;5047127;28;20199;-86
2022/03/13 02:11:16;;;;;;;18.38;11.90;;;1.50;47.90;;;;;;5047182;28;20655;-86
2022/03/13 02:13:47;;;;;;;18.73;13.15;;;1.40;47.90;;;;;;5048387;28;20253;-86
2022/03/13 02:16:15;;;;;;;15.90;11.43;;;1.40;48.00;;;;;;5047060;28;20322;-86
2022/03/13 02:18:42;;;;;;;19.20;12.48;;;1.40;47.80;;;;;;5047115;28;20234;-86
2022/03/13 02:21:09;;;;;;;18.65;11.30;;;1.40;47.50;;;;;;5049362;28;20234;-85
2022/03/13 02:23:37;;;;;;;19.63;12.20;;;1.40;47.90;;;;;;5047872;28;20261;-85
2022/03/13 02:26:06;;;;;;;21.33;12.15;;;0.80;54.30;;;;;;5047305;28;20346;-86
2022/03/13 02:28:34;;;;;;;19.55;12.95;;;1.20;48.20;;;;;;5057282;28;20230;-86
2022/03/13 02:31:04;;;;;;;19.38;12.55;;;1.20;47.80;;;;;;5057192;28;20322;-86
2022/03/13 02:33:32;;;;;;;21.40;11.85;;;1.20;48.00;;;;;;5056892;28;20214;-85
2022/03/13 02:36:00;;;;;;;18.90;13.18;;;1.10;47.90;;;;;;5058549;28;20222;-85
2022/03/13 02:38:28;;;;;;;15.38;11.23;;;1.10;48.20;;;;;;5058020;28;20239;-86
2022/03/13 02:40:58;;;;;;;19.75;12.25;;;1.00;48.30;;;;;;5057401;28;20242;-86
2022/03/13 02:43:25;;;;;;;17.00;11.40;;;0.90;47.90;;;;;;5054356;28;20261;-87
2022/03/13 02:45:53;;;;;;;21.80;12.57;;;0.70;54.60;;;;;;5047949;28;20215;-86
2022/03/13 02:48:20;;;;;;;23.05;13.25;;;0.90;64.20;;;;;;5048786;28;20205;-86
2022/03/13 02:50:47;;;;;;;18.60;12.13;;;0.90;48.40;;;;;;5047877;28;20223;-86
2022/03/13 02:53:16;;;;;;;18.65;11.20;;;1.00;48.50;;;;;;5051965;28;20194;-86
2022/03/13 02:55:43;;;;;;;19.60;13.77;;;0.80;47.90;;;;;;5057725;28;20218;-85
2022/03/13 02:58:11;;;;;;;17.58;10.93;;;0.90;48.50;;;;;;5056425;28;20234;-86
2022/03/13 03:00:44;;;;;;;14.55;10.57;;;1.00;48.40;;;;;;5050689;28;20369;-85
2022/03/13 03:03:12;;;;;;;19.40;11.35;;;1.00;48.20;;;;;;5049140;28;20298;-85
2022/03/13 03:05:38;;;;;;;16.63;10.40;;;0.90;48.10;;;;;;5053992;28;20218;-84
2022/03/13 03:08:05;;;;;;;21.00;12.57;;;0.90;48.30;;;;;;5058988;28;20196;-84
2022/03/13 03:10:34;;;;;;;19.45;11.63;;;0.90;48.40;;;;;;5058932;28;20238;-84
2022/03/13 03:13:00;;;;;;;31.65;12.10;;;1.40;48.80;;;;;;5058956;28;20184;-84
2022/03/13 03:15:28;;;;;;;18.25;11.40;;;0.90;48.70;;;;;;5054459;28;20203;-85
2022/03/13 03:17:55;;;;;;;20.55;10.73;;;0.90;48.70;;;;;;5054527;28;20234;-85
2022/03/13 03:20:22;;;;;;;18.52;12.32;;;0.70;63.60;;;;;;5055200;28;20223;-86
2022/03/13 03:22:51;;;;;;;14.25;10.02;;;0.90;48.80;;;;;;5055994;28;20204;-85
2022/03/13 03:25:22;;;;;;;18.25;11.35;;;0.90;48.70;;;;;;5055359;28;20265;-86
2022/03/13 03:27:49;;;;;;;19.63;12.07;;;0.90;48.70;;;;;;5054290;28;20192;-85
2022/03/13 03:30:18;;;;;;;15.00;10.57;;;0.90;49.00;;;;;;5053370;28;20224;-86
2022/03/13 03:32:46;;;;;;;20.20;11.40;;;0.80;49.00;;;;;;5047927;28;20210;-86
2022/03/13 03:35:13;;;;;;;18.08;11.25;;;0.80;49.50;;;;;;5048315;28;20206;-86
2022/03/13 03:37:39;;;;;;;20.63;12.85;;;0.80;49.50;;;;;;5046459;28;20204;-86
2022/03/13 03:40:07;;;;;;;17.45;12.20;;;0.80;66.30;;;;;;5040290;28;20223;-86
2022/03/13 03:42:35;;;;;;;19.13;10.68;;;0.70;58.40;;;;;;5043870;28;20211;-86
2022/03/13 03:45:02;;;;;;;17.30;10.80;;;0.80;56.70;;;;;;5044997;28;20235;-87
2022/03/13 03:47:28;;;;;;;16.30;12.63;;;0.70;49.90;;;;;;5045581;28;20261;-86
2022/03/13 03:49:56;;;;;;;14.95;9.90;;;1.00;56.80;;;;;;5044793;28;20207;-85
2022/03/13 03:52:23;;;;;;;18.45;12.65;;;0.80;50.40;;;;;;5046150;28;20250;-85
2022/03/13 03:54:49;;;;;;;18.60;10.93;;;0.90;50.20;;;;;;5045253;28;20207;-85
2022/03/13 03:57:16;;;;;;;21.08;12.00;;;0.90;50.60;;;;;;5045042;28;20211;-88
2022/03/13 03:59:43;;;;;;;18.05;11.32;;;0.90;50.30;;;;;;5044944;28;20223;-86
2022/03/13 04:02:11;;;;;;;14.25;11.60;;;0.90;50.30;;;;;;5045331;28;20227;-85
2022/03/13 04:04:39;;;;;;;22.00;11.77;;;0.80;50.40;;;;;;5046555;28;20199;-87
2022/03/13 04:07:07;;;;;;;20.20;11.52;;;1.50;51.70;;;;;;5052450;28;20234;-85
2022/03/13 04:09:33;;;;;;;23.30;12.10;;;0.80;51.20;;;;;;5052011;28;20187;-85
2022/03/13 04:12:00;;;;;;;24.70;14.35;;;0.90;51.00;;;;;;5049616;28;20250;-87
2022/03/13 04:14:27;;;;;;;16.67;12.45;;;1.10;66.50;;;;;;5046976;28;20216;-85
2022/03/13 04:16:54;;;;;;;18.48;11.93;;;0.80;51.60;;;;;;5046409;28;20214;-88
2022/03/13 04:19:21;;;;;;;21.77;12.38;;;;;;;;;;5049947;28;20468;-86
2022/03/13 04:21:48;;;;;;;18.65;12.05;;;0.70;51.70;;;;;;5048959;28;20250;-86
2022/03/13 04:24:16;;;;;;;21.92;11.98;;;0.70;52.10;;;;;;5049141;28;20199;-85
2022/03/13 04:26:42;;;;;;;15.57;11.20;;;0.80;67.00;;;;;;5046209;28;20283;-86
2022/03/13 04:29:11;;;;;;;20.80;12.25;;;;;;;;;;5047053;28;20439;-85
2022/03/13 04:31:37;;;;;;;18.17;10.95;;;0.90;50.70;;;;;;5053789;28;20220;-86
2022/03/13 04:34:04;;;;;;;21.98;12.50;;;0.90;51.40;;;;;;5051197;28;20207;-85
2022/03/13 04:36:32;;;;;;;18.73;12.75;;;1.00;51.20;;;;;;5049155;28;20429;-86
2022/03/13 04:38:59;;;;;;;18.92;12.15;;;1.00;51.00;;;;;;5049572;28;20662;-86
2022/03/13 04:41:27;;;;;;;20.40;11.77;;;1.00;51.00;;;;;;5078422;22;20231;-84
2022/03/13 04:43:54;;;;;;;16.40;12.07;;;1.20;65.60;;;;;;5062198;28;20207;-83
2022/03/13 04:46:21;;;;;;;20.13;12.15;;;1.00;50.80;;;;;;5060162;28;20207;-84
2022/03/13 04:48:48;;;;;;;21.25;13.32;;;1.00;51.10;;;;;;5060505;28;20230;-84
2022/03/13 04:51:14;;;;;;;21.17;12.85;;;1.10;68.70;;;;;;5059155;28;20459;-84
2022/03/13 04:53:41;;;;;;;18.58;12.15;;;0.80;53.30;;;;;;5060440;28;20225;-84
2022/03/13 04:56:08;;;;;;;17.48;11.90;;;0.80;52.00;;;;;;5060802;28;20210;-83
2022/03/13 04:58:36;;;;;;;20.30;11.30;;;1.00;51.90;;;;;;5060691;28;20199;-85
2022/03/13 05:01:03;;;;;;;15.85;10.75;;;0.90;51.70;;;;;;5060888;28;20253;-83
2022/03/13 05:03:33;;;;;;;18.02;12.10;;;0.90;52.10;;;;;;5061024;28;20203;-84
2022/03/13 05:05:59;;;;;;;16.55;11.52;;;0.90;52.30;;;;;;5061247;28;20297;-83
2022/03/13 05:08:26;;;;;;;15.45;10.65;;;1.30;61.60;;;;;;5063231;28;20207;-82
2022/03/13 05:10:53;;;;;;;19.63;12.25;;;1.00;50.90;;;;;;5076097;28;20257;-83
2022/03/13 05:13:22;;;;;;;21.50;12.45;;;1.00;50.80;;;;;;5073580;28;20207;-84
2022/03/13 05:15:52;;;;;;;21.27;12.43;;;1.10;50.90;;;;;;5064906;28;20207;-83
2022/03/13 05:18:19;;;;;;;16.65;11.63;;;0.90;57.20;;;;;;5073656;28;20680;-82
2022/03/13 05:20:46;;;;;;;20.48;11.52;;;1.10;51.00;;;;;;5064088;28;20227;-81
2022/03/13 05:23:13;;;;;;;17.77;11.55;;;1.10;51.10;;;;;;5064133;28;20207;-81
2022/03/13 05:25:41;;;;;;;19.70;12.40;;;1.00;51.90;;;;;;5071655;28;20226;-82
2022/03/13 05:28:09;;;;;;;19.58;11.40;;;1.10;51.10;;;;;;5066401;28;20257;-82
2022/03/13 05:30:36;;;;;;;19.02;11.88;;;1.10;51.50;;;;;;5064617;28;20219;-83
2022/03/13 05:33:05;;;;;;;21.92;12.77;;;1.10;51.40;;;;;;5078912;28;20207;-83
2022/03/13 05:35:32;;;;;;;15.80;12.55;;;1.10;51.90;;;;;;5079225;28;20210;-83
2022/03/13 05:37:59;;;;;;;16.55;11.27;;;1.10;51.90;;;;;;5076330;28;20203;-84
2022/03/13 05:40:25;;;;;;;16.40;12.02;;;1.00;58.70;;;;;;5076118;28;20251;-80
2022/03/13 05:42:55;;;;;;;15.05;10.48;;;1.00;52.80;;;;;;5081593;28;20167;-83
2022/03/13 05:45:25;;;;;;;15.77;11.95;;;1.00;52.30;;;;;;5081388;28;20195;-81
2022/03/13 05:47:54;;;;;;;18.05;11.10;;;1.00;52.10;;;;;;5081247;28;20217;-82
2022/03/13 05:50:24;;;;;;;15.18;11.05;;;1.20;68.90;;;;;;5080882;28;20203;-82
2022/03/13 05:52:54;;;;;;;21.13;12.85;;;1.00;51.90;;;;;;5081061;28;20183;-83
2022/03/13 05:55:21;;;;;;;20.67;12.43;;;0.90;52.40;;;;;;5069849;28;20230;-83
2022/03/13 05:57:48;;;;;;;21.10;12.35;;;1.00;67.50;;;;;;5066647;28;20226;-83
2022/03/13 06:00:15;;;;;;;25.58;12.75;;;1.30;67.80;;;;;;5070282;28;20231;-83
2022/03/13 06:02:47;;;;;;;17.52;11.68;;;1.00;52.20;;;;;;5078992;28;20214;-83
2022/03/13 06:05:16;;;;;;;17.35;11.20;;;1.00;51.90;;;;;;5076896;28;20580;-82
2022/03/13 06:07:44;;;;;;;19.17;11.95;;;1.00;52.00;;;;;;5065331;28;20199;-84
2022/03/13 06:10:10;;;;;;;15.52;11.50;;;0.90;51.80;;;;;;5070646;28;20203;-80
2022/03/13 06:12:37;;;;;;;22.00;12.63;;;0.80;51.90;;;;;;5075636;28;20214;-84
2022/03/13 06:15:06;;;;;;;19.63;12.07;;;0.90;52.00;;;;;;5070937;28;20226;-83
2022/03/13 06:17:37;;;;;;;15.95;12.00;;;0.80;52.10;;;;;;5067220;28;20207;-82
2022/03/13 06:20:07;;;;;;;19.85;11.85;;;0.90;51.80;;;;;;5064614;28;20550;-83
2022/03/13 06:22:34;;;;;;;21.10;11.40;;;0.90;52.30;;;;;;5063281;28;20249;-84
2022/03/13 06:25:02;;;;;;;20.42;13.13;;;0.90;52.10;;;;;;5062790;28;20281;-82
2022/03/13 06:27:30;;;;;;;15.77;11.10;;;1.00;51.60;;;;;;5061190;28;20221;-83
2022/03/13 06:30:00;;;;;;;18.15;11.80;;;1.20;66.30;;;;;;5061519;28;20203;-82
2022/03/13 06:32:27;;;;;;;20.95;12.15;;;1.00;58.70;;;;;;5061646;28;20223;-85
2022/03/13 06:34:54;;;;;;;16.80;11.80;;;1.00;51.30;;;;;;5061986;28;20225;-84
2022/03/13 06:37:21;;;;;;;17.40;11.80;;;1.00;51.60;;;;;;5061687;28;20206;-84
2022/03/13 06:39:50;;;;;;;16.83;12.25;;;1.00;51.30;;;;;;5064056;28;20227;-83
2022/03/13 06:42:19;;;;;;;19.83;11.80;;;1.10;51.20;;;;;;5061322;28;20313;-84
2022/03/13 06:44:46;;;;;;;17.35;12.20;;;1.20;51.20;;;;;;5063788;28;20198;-82
2022/03/13 06:47:13;;;;;;;20.85;12.80;;;1.20;51.10;;;;;;5061757;28;20214;-83
2022/03/13 06:49:40;;;;;;;19.52;14.20;;;1.30;51.00;;;;;;5062350;28;20203;-83
2022/03/13 06:52:07;;;;;;;16.65;11.25;;;1.20;51.20;;;;;;5061636;28;20737;-82
2022/03/13 06:54:35;;;;;;;21.88;13.05;;;1.30;51.20;;;;;;5060617;28;20207;-84
2022/03/13 06:57:01;;;;;;;14.85;10.32;;;1.40;51.10;;;;;;5061307;28;20203;-83
2022/03/13 06:59:29;;;;;;;18.20;13.40;;;1.50;50.90;;;;;;5062435;28;20573;-83
2022/03/13 07:01:56;;;;;;;22.55;11.70;;;1.60;50.70;;;;;;5072648;28;20219;-82
2022/03/13 07:04:22;;;;;;;18.95;12.07;;;1.70;50.40;;;;;;5075940;28;20202;-82
2022/03/13 07:06:49;;;;;;;18.65;10.45;;;2.20;64.90;;;;;;5076935;28;20202;-80
2022/03/13 07:09:15;;;;;;;16.70;12.07;;;1.90;50.20;;;;;;5076551;28;20233;-83
2022/03/13 07:11:45;;;;;;;17.95;11.50;;;2.00;50.20;;;;;;5076138;28;20207;-84
2022/03/13 07:14:12;;;;;;;18.35;12.35;;;2.30;64.30;;;;;;5075539;28;20218;-82
2022/03/13 07:16:41;;;;;;;16.85;11.95;;;2.30;48.50;;;;;;5073171;28;20203;-82
2022/03/13 07:19:09;;;;;;;17.45;11.13;;;2.30;47.40;;;;;;5071683;28;20203;-81
2022/03/13 07:21:37;;;;;;;16.80;11.35;;;2.40;47.40;;;;;;5070016;28;20273;-83
2022/03/13 07:24:04;;;;;;;22.30;13.73;;;2.50;46.90;;;;;;5069380;28;20210;-81
2022/03/13 07:26:30;;;;;;;15.25;11.18;;;2.60;47.40;;;;;;5069926;28;20210;-83
2022/03/13 07:28:57;;;;;;;19.77;13.32;;;2.60;47.30;;;;;;5069728;28;20211;-84
2022/03/13 07:31:24;;;;;;;17.77;12.27;;;2.70;46.40;;;;;;5069177;28;20646;-83
2022/03/13 07:33:52;;;;;;;17.90;11.52;;;2.80;46.90;;;;;;5073166;28;20210;-83
2022/03/13 07:36:19;;;;;;;17.00;10.70;;;2.90;46.50;;;;;;5071777;28;20234;-83
2022/03/13 07:38:45;;;;;;;19.42;10.52;;;2.90;46.10;;;;;;5068730;28;20218;-83
2022/03/13 07:41:12;;;;;;;22.58;11.40;;;3.00;46.20;;;;;;5066407;28;20235;-84
2022/03/13 07:43:39;;;;;;;19.27;11.65;;;3.10;45.90;;;;;;5064945;28;20203;-80
2022/03/13 07:46:05;;;;;;;19.10;11.25;;;3.10;45.50;;;;;;5067821;28;20207;-84
2022/03/13 07:48:34;;;;;;;15.40;11.70;;;3.20;45.50;;;;;;5071324;28;20250;-82
2022/03/13 07:51:04;;;;;;;15.95;10.70;;;3.30;46.30;;;;;;5077670;28;20214;-82
2022/03/13 07:53:32;;;;;;;14.45;10.55;;;3.40;58.00;;;;;;5078808;28;20187;-81
2022/03/13 07:56:02;;;;;;;15.18;9.75;;;3.50;44.70;;;;;;5078785;28;20207;-82
2022/03/13 07:58:29;;;;;;;14.00;11.13;;;3.50;44.30;;;;;;5077982;28;20182;-81
2022/03/13 08:00:57;;;;;;;20.20;11.23;;;3.60;44.40;;;;;;5061074;28;20231;-82
2022/03/13 08:03:28;;;;;;;20.48;12.20;;;3.60;44.20;;;;;;5060388;28;20203;-86
2022/03/13 08:05:54;;;;;;;15.90;10.95;;;3.70;43.80;;;;;;5060411;28;20197;-82
2022/03/13 08:08:22;;;;;;;16.67;11.05;;;3.60;43.30;;;;;;5063971;28;20202;-83
2022/03/13 08:10:49;;;;;;;16.10;11.30;;;3.80;43.30;;;;;;5072032;28;20223;-82
2022/03/13 08:13:16;;;;;;;21.73;11.63;;;3.90;42.90;;;;;;5072998;28;20207;-84
2022/03/13 08:15:42;;;;;;;12.88;10.60;;;4.00;43.00;;;;;;5062723;28;20260;-85
2022/03/13 08:18:10;;;;;;;16.95;11.13;;;4.40;53.20;;;;;;5065151;28;20210;-83
2022/03/13 08:20:37;;;;;;;14.95;9.95;;;4.30;45.60;;;;;;5069645;28;20241;-83
2022/03/13 08:23:04;;;;;;;15.75;9.95;;;4.40;40.90;;;;;;5065865;28;20241;-83
2022/03/13 08:25:32;;;;;;;19.08;10.77;;;4.60;40.70;;;;;;5063413;28;20210;-84
2022/03/13 08:27:59;;;;;;;14.18;10.98;;;4.70;39.90;;;;;;5062333;28;20261;-83
2022/03/13 08:30:26;;;;;;;13.43;9.82;;;4.60;51.80;;;;;;5062965;28;20221;-83
2022/03/13 08:32:53;;;;;;;16.23;10.27;;;4.80;38.70;;;;;;5064913;28;20532;-82
2022/03/13 08:35:20;;;;;;;14.90;10.23;;;5.00;50.10;;;;;;5062071;28;20203;-82
2022/03/13 08:37:46;;;;;;;13.70;9.15;;;5.20;38.50;;;;;;5065452;28;20206;-84
2022/03/13 08:40:13;;;;;;;17.98;10.63;;;5.50;43.00;;;;;;5062662;28;20613;-84
2022/03/13 08:42:44;;;;;;;16.65;10.30;;;5.40;37.80;;;;;;5061812;28;20207;-83
2022/03/13 08:45:12;;;;;;;15.27;11.48;;;5.40;37.20;;;;;;5063712;28;20229;-83
2022/03/13 08:47:39;;;;;;;16.38;9.75;;;5.40;36.90;;;;;;5063233;28;20206;-85
2022/03/13 08:50:08;;;;;;;15.77;10.02;;;5.40;36.70;;;;;;5062466;28;20209;-86
2022/03/13 08:52:36;;;;;;;13.20;9.07;;;5.50;36.80;;;;;;5064106;28;20233;-83
2022/03/13 08:55:03;;;;;;;17.52;10.75;;;5.60;35.10;;;;;;5065661;28;20191;-83
2022/03/13 08:57:29;;;;;;;10.02;8.07;;;5.80;35.60;;;;;;5067667;28;20203;-82
2022/03/13 08:59:59;;;;;;;14.48;9.30;;;5.80;33.40;;;;;;5080475;28;20187;-84
2022/03/13 09:02:25;;;;;;;15.75;9.52;;;5.90;33.10;;;;;;5081820;28;20222;-82
2022/03/13 09:04:52;;;;;;;12.85;8.68;;;5.90;32.60;;;;;;5081856;28;20205;-83
2022/03/13 09:07:19;;;;;;;15.05;9.10;;;6.00;31.90;;;;;;5081160;28;20193;-82
2022/03/13 09:09:46;;;;;;;21.50;9.15;;;6.10;31.80;;;;;;5080800;28;20203;-84
2022/03/13 09:12:13;;;;;;;14.60;8.90;;;6.20;32.30;;;;;;5080502;28;20246;-84
2022/03/13 09:14:39;;;;;;;14.85;9.30;;;6.20;31.60;;;;;;5080933;28;20310;-84
2022/03/13 09:17:11;;;;;;;13.63;8.90;;;6.30;31.40;;;;;;5072686;28;20222;-84
2022/03/13 09:19:38;;;;;;;10.73;8.40;;;6.60;31.20;;;;;;5072002;28;20187;-85
2022/03/13 09:22:05;;;;;;;9.57;8.48;;;6.60;30.00;;;;;;5077713;28;20230;-83
2022/03/13 09:24:32;;;;;;;11.75;8.50;;;6.70;30.40;;;;;;5079404;28;20217;-84
2022/03/13 09:26:58;;;;;;;14.35;9.38;;;6.80;30.10;;;;;;5069914;28;20214;-82
2022/03/13 09:29:25;;;;;;;11.43;8.82;;;6.90;30.00;;;;;;5074718;28;20207;-82
2022/03/13 09:31:52;;;;;;;12.70;9.15;;;7.00;30.20;;;;;;5079607;28;20274;-82
2022/03/13 09:34:20;;;;;;;12.50;8.15;;;7.00;30.40;;;;;;5070919;28;20202;-81
2022/03/13 09:36:47;;;;;;;11.40;8.98;;;7.30;41.40;;;;;;5071547;28;20203;-79
2022/03/13 09:39:14;;;;;;;10.32;7.97;;;7.20;29.30;;;;;;5076915;28;20191;-82
2022/03/13 09:41:41;;;;;;;9.23;8.23;;;7.30;28.20;;;;;;5076766;28;20290;-82
2022/03/13 09:44:08;;;;;;;11.50;8.48;;;7.50;28.40;;;;;;5077056;28;20266;-86
2022/03/13 09:46:39;;;;;;;12.40;8.65;;;7.60;27.50;;;;;;5077022;28;20195;-82
2022/03/13 09:49:06;;;;;;;11.32;7.65;;;7.70;26.40;;;;;;5075844;28;20231;-82
2022/03/13 09:51:34;;;;;;;12.93;7.75;;;7.80;26.50;;;;;;5078653;28;20211;-83
2022/03/13 09:54:02;;;;;;;11.32;8.15;;;7.70;25.20;;;;;;5072088;28;20262;-81
2022/03/13 09:56:28;;;;;;;10.50;7.60;;;7.70;26.20;;;;;;5069635;28;20218;-83
2022/03/13 09:58:55;;;;;;;12.43;8.30;;;7.70;25.50;;;;;;5066996;28;20449;-83
2022/03/13 10:01:23;;;;;;;10.95;7.93;;;7.70;25.60;;;;;;5067216;28;20243;-84
2022/03/13 10:03:51;;;;;;;10.17;7.60;;;7.80;27.60;;;;;;5064879;28;20306;-83
2022/03/13 10:06:17;;;;;;;13.57;7.77;;;8.00;25.40;;;;;;5063672;28;20451;-83
2022/03/13 10:08:45;;;;;;;13.17;7.80;;;8.10;25.00;;;;;;5066680;28;20446;-82
2022/03/13 10:11:12;;;;;;;10.18;7.60;;;8.10;24.70;;;;;;5065388;28;20468;-83
2022/03/13 10:13:41;;;;;;;10.33;7.10;;;8.10;24.20;;;;;;5063389;28;20617;-82
2022/03/13 10:16:10;;;;;;;13.40;7.80;;;8.20;24.50;;;;;;5062757;28;20446;-83
2022/03/13 10:18:37;;;;;;;10.20;8.17;;;8.30;24.70;;;;;;5068326;28;20450;-83
2022/03/13 10:21:12;;;;;;;10.63;7.63;;;8.50;35.10;;;;;;5062768;28;20463;-83
2022/03/13 10:23:39;;;;;;;8.10;6.97;;;8.50;23.90;;;;;;5062993;28;20451;-83
2022/03/13 10:26:08;;;;;;;9.53;7.10;;;8.60;23.50;;;;;;5064223;28;20473;-83
2022/03/13 10:28:36;;;;;;;9.27;7.60;;;8.70;23.10;;;;;;5066816;28;20465;-84
2022/03/13 10:31:16;;;;;;;11.70;8.47;;;8.70;22.90;;;;;;5067330;28;20435;-85
2022/03/13 10:33:55;;;;;;;8.40;6.60;;;9.00;28.30;;;;;;5066566;28;20786;-83
2022/03/13 10:36:31;;;;;;;16.90;8.10;;;8.90;25.10;;;;;;5070485;28;20483;-83
2022/03/13 10:38:59;;;;;;;11.40;7.80;;;9.00;29.40;;;;;;5076939;28;20431;-82
2022/03/13 10:41:45;;;;;;;10.90;6.73;;;9.10;23.70;;;;;;5098326;22;20487;-85
2022/03/13 10:44:14;;;;;;;8.73;6.80;;;9.10;30.20;;;;;;5053137;28;20962;-84
2022/03/13 10:46:43;;;;;;;10.50;7.30;;;9.30;21.90;;;;;;5052815;28;20475;-85
2022/03/13 10:49:13;;;;;;;8.00;6.83;;;9.30;24.00;;;;;;5046724;28;20505;-85
2022/03/13 10:51:45;;;;;;;6.97;5.77;;;9.40;31.60;;;;;;5047936;28;20458;-85
2022/03/13 10:54:27;;;;;;;9.43;6.70;;;9.50;22.30;;;;;;5048563;28;20426;-86
2022/03/13 10:57:09;;;;;;;9.47;6.00;;;9.60;22.00;;;;;;5049792;28;20408;-85
2022/03/13 10:59:37;;;;;;;7.20;5.50;;;9.70;21.90;;;;;;5056417;28;20448;-86
2022/03/13 11:02:24;;;;;;;8.70;6.70;;;9.80;22.40;;;;;;5052401;28;20510;-85
2022/03/13 11:04:55;;;;;;;7.73;5.70;;;10.20;27.50;;;;;;5047738;28;20432;-84
2022/03/13 11:07:22;;;;;;;7.60;6.20;;;10.30;22.90;;;;;;5058354;28;20455;-85
2022/03/13 11:09:50;;;;;;;7.10;5.73;;;10.00;19.90;;;;;;5058669;28;20417;-85
2022/03/13 11:12:20;;;;;;;9.50;6.70;;;10.30;22.70;;;;;;5058695;28;20485;-84
2022/03/13 11:14:49;;;;;;;9.40;6.00;;;10.00;20.10;;;;;;5058765;28;20464;-84
2022/03/13 11:17:18;;;;;;;8.30;7.50;;;10.10;20.60;;;;;;5058439;28;20420;-82
2022/03/13 11:19:47;;;;;;;9.73;6.83;;;10.10;21.60;;;;;;5058292;28;20397;-85
2022/03/13 11:22:16;;;;;;;8.93;6.70;;;10.10;22.60;;;;;;5057334;28;20512;-85
2022/03/13 11:24:45;;;;;;;8.90;7.10;;;10.10;20.90;;;;;;5048420;28;20455;-85
2022/03/13 11:27:13;;;;;;;10.43;6.57;;;10.10;22.10;;;;;;5044817;28;20435;-85
2022/03/13 11:29:45;;;;;;;10.93;7.50;;;10.20;21.30;;;;;;5045178;28;20442;-86
2022/03/13 11:32:36;;;;;;;15.40;8.00;;;10.30;20.30;;;;;;5045039;28;20433;-84
2022/03/13 11:35:30;;;;;;;12.60;7.13;;;10.30;27.70;;;;;;5042330;28;20427;-86
2022/03/13 11:38:17;;;;;;;8.40;6.83;;;10.20;27.20;;;;;;5042562;28;20436;-84
2022/03/13 11:40:44;;;;;;;10.20;6.50;;;10.50;28.20;;;;;;5042562;28;20477;-85
2022/03/13 11:43:13;;;;;;;8.87;6.90;;;10.30;19.20;;;;;;5043292;28;20493;-85
2022/03/13 11:45:42;;;;;;;7.70;6.80;;;10.30;19.10;;;;;;5044475;28;20449;-85
2022/03/13 11:48:43;;;;;;;8.47;6.97;;;10.40;19.00;;;;;;5046123;28;20445;-85
2022/03/13 11:51:11;;;;;;;8.40;6.13;;;10.50;18.50;;;;;;5045139;28;20464;-84
2022/03/13 11:53:46;;;;;;;9.90;6.07;;;10.50;27.00;;;;;;5047920;28;20814;-84
2022/03/13 11:56:25;;;;;;;7.23;6.40;;;10.50;18.40;;;;;;5047684;28;20433;-84
2022/03/13 11:58:56;;;;;;;8.60;6.80;;;10.60;17.80;;;;;;5047132;28;20461;-84
2022/03/13 12:01:36;;;;;;;9.50;7.60;;;10.60;20.80;;;;;;5047126;28;20461;-84
2022/03/13 12:04:25;;;;;;;12.43;8.20;;;10.80;18.80;;;;;;5049768;28;20431;-84
2022/03/13 12:06:57;;;;;;;9.00;7.23;;;10.90;20.00;;;;;;5049784;28;20485;-85
2022/03/13 12:09:42;;;;;;;9.13;8.03;;;10.90;24.10;;;;;;5053519;28;20437;-84
2022/03/13 12:12:12;;;;;;;11.20;9.37;;;10.80;21.30;;;;;;5047670;28;20485;-85
2022/03/13 12:15:06;;;;;;;15.23;8.63;;;10.80;31.10;;;;;;5046720;28;20478;-84
2022/03/13 12:17:48;;;;;;;9.63;8.30;;;10.70;22.50;;;;;;5045848;28;20867;-85
2022/03/13 12:20:24;;;;;;;14.73;9.40;;;10.80;22.00;;;;;;5044190;28;20427;-87
2022/03/13 12:22:54;;;;;;;14.90;8.23;;;10.80;23.50;;;;;;5048769;28;20660;-85
2022/03/13 12:25:24;;;;;;;13.37;9.03;;;10.80;21.70;;;;;;5050520;28;20457;-85
2022/03/13 12:27:51;;;;;;;15.60;11.17;;;10.80;22.60;;;;;;5046649;28;20425;-85
2022/03/13 12:30:25;;;;;;;11.53;8.60;;;10.90;24.00;;;;;;5042393;28;20442;-84
2022/03/13 12:32:59;;;;;;;12.17;8.87;;;11.10;23.50;;;;;;5041430;28;20430;-85
2022/03/13 12:35:26;;;;;;;12.00;9.17;;;11.10;22.10;;;;;;5045405;28;20435;-85
2022/03/13 12:37:54;;;;;;;13.67;9.23;;;11.00;22.20;;;;;;5054874;28;20434;-85
2022/03/13 12:40:23;;;;;;;18.20;13.50;;;11.10;22.30;;;;;;5043932;28;20801;-85
2022/03/13 12:42:53;;;;;;;18.07;11.10;;;11.00;22.40;;;;;;5045035;28;20564;-86
2022/03/13 12:45:21;;;;;;;13.50;9.50;;;11.00;23.70;;;;;;5043628;28;20493;-85
2022/03/13 12:47:49;;;;;;;11.30;10.13;;;11.10;21.80;;;;;;5044236;28;20421;-85